sensor_id;sensor_type;location;lat;lon;timestamp;temperature;humidity
24444;DHT22;13346;50.984;5.822;2023-03-21T00:00:39;10.30;99.90
24444;DHT22;13346;50.984;5.822;2023-03-21T00:03:07;10.20;99.90
24444;DHT22;13346;50.984;5.822;2023-03-21T00:05:38;10.20;99.90
24444;DHT22;13346;50.984;5.822;2023-03-21T00:08:06;10.20;99.90
24444;DHT22;13346;50.984;5.822;2023-03-21T00:10:33;10.20;99.90
24444;DHT22;13346;50.984;5.822;2023-03-21T00:13:00;10.10;99.90
24444;DHT22;13346;50.984;5.822;2023-03-21T00:15:28;10.10;99.90
24444;DHT22;13346;50.984;5.822;2023-03-21T00:17:56;10.10;99.90
24444;DHT22;13346;50.984;5.822;2023-03-21T00:20:28;10.10;99.90
24444;DHT22;13346;50.984;5.822;2023-03-21T00:22:55;10.10;99.90
24444;DHT22;13346;50.984;5.822;2023-03-21T00:25:22;10.10;99.90
24444;DHT22;13346;50.984;5.822;2023-03-21T00:27:50;10.00;99.90
24444;DHT22;13346;50.984;5.822;2023-03-21T00:30:17;10.00;99.90
24444;DHT22;13346;50.984;5.822;2023-03-21T00:32:45;10.00;99.90
24444;DHT22;13346;50.984;5.822;2023-03-21T00:35:14;10.00;99.90
24444;DHT22;13346;50.984;5.822;2023-03-21T00:37:41;9.90;99.90
24444;DHT22;13346;50.984;5.822;2023-03-21T00:40:10;9.90;99.90
24444;DHT22;13346;50.984;5.822;2023-03-21T00:42:37;9.90;99.90
24444;DHT22;13346;50.984;5.822;2023-03-21T00:45:05;9.90;99.90
24444;DHT22;13346;50.984;5.822;2023-03-21T00:47:35;9.80;99.90
24444;DHT22;13346;50.984;5.822;2023-03-21T00:50:03;9.80;99.90
24444;DHT22;13346;50.984;5.822;2023-03-21T00:52:33;9.80;99.90
24444;DHT22;13346;50.984;5.822;2023-03-21T00:55:01;9.80;99.90
24444;DHT22;13346;50.984;5.822;2023-03-21T00:57:28;9.90;99.90
24444;DHT22;13346;50.984;5.822;2023-03-21T00:59:55;9.70;99.90
24444;DHT22;13346;50.984;5.822;2023-03-21T01:02:23;9.70;99.90
24444;DHT22;13346;50.984;5.822;2023-03-21T01:04:51;9.70;99.90
24444;DHT22;13346;50.984;5.822;2023-03-21T01:07:19;9.70;99.90
24444;DHT22;13346;50.984;5.822;2023-03-21T01:09:48;9.60;99.90
24444;DHT22;13346;50.984;5.822;2023-03-21T01:12:15;9.70;99.90
24444;DHT22;13346;50.984;5.822;2023-03-21T01:14:42;9.60;99.90
24444;DHT22;13346;50.984;5.822;2023-03-21T01:17:10;9.60;99.90
24444;DHT22;13346;50.984;5.822;2023-03-21T01:19:37;9.50;99.90
24444;DHT22;13346;50.984;5.822;2023-03-21T01:22:04;9.40;99.90
24444;DHT22;13346;50.984;5.822;2023-03-21T01:24:31;9.30;99.90
24444;DHT22;13346;50.984;5.822;2023-03-21T01:27:01;9.30;99.90
24444;DHT22;13346;50.984;5.822;2023-03-21T01:29:28;9.30;99.90
24444;DHT22;13346;50.984;5.822;2023-03-21T01:31:55;9.30;99.90
24444;DHT22;13346;50.984;5.822;2023-03-21T01:34:22;9.20;99.90
24444;DHT22;13346;50.984;5.822;2023-03-21T01:36:50;9.20;99.90
24444;DHT22;13346;50.984;5.822;2023-03-21T01:39:18;9.20;99.90
24444;DHT22;13346;50.984;5.822;2023-03-21T01:41:45;9.20;99.90
24444;DHT22;13346;50.984;5.822;2023-03-21T01:44:18;9.30;99.90
24444;DHT22;13346;50.984;5.822;2023-03-21T01:46:47;9.30;99.90
24444;DHT22;13346;50.984;5.822;2023-03-21T01:49:19;9.40;99.90
24444;DHT22;13346;50.984;5.822;2023-03-21T01:51:53;9.40;99.90
24444;DHT22;13346;50.984;5.822;2023-03-21T01:54:24;9.50;99.90
24444;DHT22;13346;50.984;5.822;2023-03-21T01:56:55;9.50;99.90
24444;DHT22;13346;50.984;5.822;2023-03-21T01:59:28;9.50;99.90
24444;DHT22;13346;50.984;5.822;2023-03-21T02:01:59;9.50;99.90
24444;DHT22;13346;50.984;5.822;2023-03-21T02:04:32;9.50;99.90
24444;DHT22;13346;50.984;5.822;2023-03-21T02:07:03;9.60;99.90
24444;DHT22;13346;50.984;5.822;2023-03-21T02:09:33;9.60;99.90
24444;DHT22;13346;50.984;5.822;2023-03-21T02:12:02;9.60;99.90
24444;DHT22;13346;50.984;5.822;2023-03-21T02:14:32;9.60;99.90
24444;DHT22;13346;50.984;5.822;2023-03-21T02:17:06;9.60;99.90
24444;DHT22;13346;50.984;5.822;2023-03-21T02:26:20;9.60;99.90
24444;DHT22;13346;50.984;5.822;2023-03-21T02:28:54;9.70;99.90
24444;DHT22;13346;50.984;5.822;2023-03-21T02:31:35;9.70;99.90
24444;DHT22;13346;50.984;5.822;2023-03-21T02:37:20;9.70;99.90
24444;DHT22;13346;50.984;5.822;2023-03-21T02:39:59;9.70;99.90
24444;DHT22;13346;50.984;5.822;2023-03-21T02:42:39;9.70;99.90
24444;DHT22;13346;50.984;5.822;2023-03-21T02:45:14;9.80;99.90
24444;DHT22;13346;50.984;5.822;2023-03-21T02:47:46;9.80;99.90
24444;DHT22;13346;50.984;5.822;2023-03-21T02:50:20;9.80;99.90
24444;DHT22;13346;50.984;5.822;2023-03-21T02:52:52;9.70;99.90
24444;DHT22;13346;50.984;5.822;2023-03-21T02:55:23;9.80;99.90
24444;DHT22;13346;50.984;5.822;2023-03-21T02:57:52;9.80;99.90
24444;DHT22;13346;50.984;5.822;2023-03-21T03:00:23;9.80;99.90
24444;DHT22;13346;50.984;5.822;2023-03-21T03:02:52;9.70;99.90
24444;DHT22;13346;50.984;5.822;2023-03-21T03:05:22;9.70;99.90
24444;DHT22;13346;50.984;5.822;2023-03-21T03:08:03;9.70;99.90
24444;DHT22;13346;50.984;5.822;2023-03-21T03:10:56;9.70;99.90
24444;DHT22;13346;50.984;5.822;2023-03-21T03:13:37;9.80;99.90
24444;DHT22;13346;50.984;5.822;2023-03-21T03:16:17;9.80;99.90
24444;DHT22;13346;50.984;5.822;2023-03-21T03:18:50;9.80;99.90
24444;DHT22;13346;50.984;5.822;2023-03-21T03:21:20;9.80;99.90
24444;DHT22;13346;50.984;5.822;2023-03-21T03:23:54;9.90;99.90
24444;DHT22;13346;50.984;5.822;2023-03-21T03:26:25;9.90;99.90
24444;DHT22;13346;50.984;5.822;2023-03-21T03:28:58;9.90;99.90
24444;DHT22;13346;50.984;5.822;2023-03-21T03:31:31;9.90;99.90
24444;DHT22;13346;50.984;5.822;2023-03-21T03:34:01;10.00;99.90
24444;DHT22;13346;50.984;5.822;2023-03-21T03:36:35;10.00;99.90
24444;DHT22;13346;50.984;5.822;2023-03-21T03:39:07;10.10;99.90
24444;DHT22;13346;50.984;5.822;2023-03-21T03:41:41;10.10;99.90
24444;DHT22;13346;50.984;5.822;2023-03-21T03:44:09;10.10;99.90
24444;DHT22;13346;50.984;5.822;2023-03-21T03:46:44;10.10;99.90
24444;DHT22;13346;50.984;5.822;2023-03-21T03:49:16;10.20;99.90
24444;DHT22;13346;50.984;5.822;2023-03-21T03:51:50;10.20;99.90
24444;DHT22;13346;50.984;5.822;2023-03-21T22:54:18;12.20;99.90
24444;DHT22;13346;50.984;5.822;2023-03-21T22:56:45;12.10;99.90
24444;DHT22;13346;50.984;5.822;2023-03-21T22:59:13;12.10;99.90
24444;DHT22;13346;50.984;5.822;2023-03-21T23:01:40;12.10;99.90
24444;DHT22;13346;50.984;5.822;2023-03-21T23:04:08;12.00;99.90
24444;DHT22;13346;50.984;5.822;2023-03-21T23:06:35;11.90;99.90
24444;DHT22;13346;50.984;5.822;2023-03-21T23:09:03;11.90;99.90
24444;DHT22;13346;50.984;5.822;2023-03-21T23:11:31;11.80;99.90
24444;DHT22;13346;50.984;5.822;2023-03-21T23:13:58;11.80;99.90
24444;DHT22;13346;50.984;5.822;2023-03-21T23:16:26;11.90;99.90
24444;DHT22;13346;50.984;5.822;2023-03-21T23:18:53;11.80;99.90
24444;DHT22;13346;50.984;5.822;2023-03-21T23:21:21;11.80;99.90
24444;DHT22;13346;50.984;5.822;2023-03-21T23:23:50;11.70;99.90
24444;DHT22;13346;50.984;5.822;2023-03-21T23:26:19;11.60;99.90
24444;DHT22;13346;50.984;5.822;2023-03-21T23:28:49;11.60;99.90
24444;DHT22;13346;50.984;5.822;2023-03-21T23:31:18;11.50;99.90
24444;DHT22;13346;50.984;5.822;2023-03-21T23:33:47;11.50;99.90
24444;DHT22;13346;50.984;5.822;2023-03-21T23:36:15;11.40;99.90
24444;DHT22;13346;50.984;5.822;2023-03-21T23:38:44;11.40;99.90
24444;DHT22;13346;50.984;5.822;2023-03-21T23:41:13;11.60;99.90
24444;DHT22;13346;50.984;5.822;2023-03-21T23:43:41;11.70;99.90
24444;DHT22;13346;50.984;5.822;2023-03-21T23:46:10;11.70;99.90
24444;DHT22;13346;50.984;5.822;2023-03-21T23:48:38;11.60;99.90
24444;DHT22;13346;50.984;5.822;2023-03-21T23:51:06;11.60;99.90
24444;DHT22;13346;50.984;5.822;2023-03-21T23:53:33;11.70;99.90
24444;DHT22;13346;50.984;5.822;2023-03-21T23:56:08;11.80;99.90
24444;DHT22;13346;50.984;5.822;2023-03-21T23:58:35;11.70;99.90
